Time;durP1;ratioP1;P1;durP2;ratioP2;P2;SDS_P1;SDS_P2;PMS_P1;PMS_P2;Temp;Humidity;BMP_temperature;BMP_pressure;BME280_temperature;BME280_humidity;BME280_pressure;Samples;Min_cycle;Max_cycle;Signal;HPM_P1;HPM_P2
2022/11/24 00:01:24;;;;;;;13.67;10.50;;;1.60;99.90;;;;;;5081982;28;21032;-80
2022/11/24 00:03:55;;;;;;;12.47;9.10;;;1.60;99.90;;;;;;5086098;28;20612;-79
2022/11/24 00:06:24;;;;;;;12.67;10.23;;;1.40;99.90;;;;;;5087256;28;20496;-80
2022/11/24 00:08:51;;;;;;;15.97;11.10;;;1.20;99.90;;;;;;5099180;28;20543;-80
2022/11/24 00:11:21;;;;;;;13.43;9.20;;;1.10;99.90;;;;;;5092584;28;20832;-80
2022/11/24 00:13:48;;;;;;;14.03;8.57;;;1.00;99.90;;;;;;5096381;28;20980;-79
2022/11/24 00:16:16;;;;;;;14.37;10.47;;;0.90;99.90;;;;;;5087283;28;20493;-80
2022/11/24 00:18:45;;;;;;;12.43;8.73;;;0.80;99.90;;;;;;5087150;28;20478;-80
2022/11/24 00:21:13;;;;;;;14.35;9.55;;;0.80;99.90;;;;;;5097167;28;20545;-79
2022/11/24 00:23:42;;;;;;;16.30;10.50;;;0.90;99.90;;;;;;5103614;28;20430;-80
2022/11/24 00:26:11;;;;;;;17.43;9.83;;;1.00;99.90;;;;;;5100469;28;20526;-80
2022/11/24 00:28:39;;;;;;;13.90;8.10;;;1.00;99.90;;;;;;5106717;28;20511;-80
2022/11/24 00:31:14;;;;;;;14.53;10.13;;;1.10;99.90;;;;;;5102474;28;20803;-79
2022/11/24 00:33:41;;;;;;;11.93;8.67;;;1.20;99.90;;;;;;5086468;28;20461;-79
2022/11/24 00:36:08;;;;;;;15.27;10.60;;;1.30;99.90;;;;;;5090065;28;20522;-80
2022/11/24 00:38:35;;;;;;;18.27;10.30;;;1.30;99.90;;;;;;5090719;28;20844;-80
2022/11/24 00:41:04;;;;;;;17.23;11.40;;;1.20;99.90;;;;;;5088132;28;20726;-79
2022/11/24 00:43:31;;;;;;;17.90;10.50;;;1.30;99.90;;;;;;5090249;28;20527;-80
2022/11/24 00:45:58;;;;;;;19.77;10.40;;;1.30;99.90;;;;;;5100000;28;20570;-79
2022/11/24 00:48:25;;;;;;;23.53;11.00;;;1.30;99.90;;;;;;5089662;28;20474;-80
2022/11/24 00:50:58;;;;;;;14.40;9.40;;;1.40;99.90;;;;;;5085066;28;20505;-79
2022/11/24 00:53:26;;;;;;;17.63;10.87;;;1.40;99.90;;;;;;5089960;28;20486;-79
2022/11/24 00:55:53;;;;;;;16.77;10.93;;;1.40;99.90;;;;;;5090301;28;20490;-79
2022/11/24 00:58:22;;;;;;;18.50;11.33;;;1.50;99.90;;;;;;5097562;28;20893;-79
2022/11/24 01:00:49;;;;;;;20.80;11.77;;;1.50;99.90;;;;;;5100901;28;21014;-79
2022/11/24 01:03:18;;;;;;;19.20;10.67;;;1.50;99.90;;;;;;5099414;28;20903;-79
2022/11/24 01:05:45;;;;;;;24.40;11.87;;;1.50;99.90;;;;;;5099552;28;20574;-79
2022/11/24 01:08:12;;;;;;;14.23;11.53;;;1.60;99.90;;;;;;5102929;28;20964;-80
2022/11/24 01:10:39;;;;;;;11.27;8.77;;;1.70;99.90;;;;;;5103769;28;20553;-80
2022/11/24 01:13:06;;;;;;;16.27;10.43;;;1.70;99.90;;;;;;5095054;28;20454;-80
2022/11/24 01:15:36;;;;;;;12.60;9.83;;;1.80;99.90;;;;;;5102676;28;20494;-79
2022/11/24 01:18:04;;;;;;;12.60;10.33;;;1.80;99.90;;;;;;5103930;28;20546;-79
2022/11/24 01:20:31;;;;;;;18.40;9.80;;;1.90;99.90;;;;;;5095288;28;20484;-79
2022/11/24 01:22:58;;;;;;;14.33;9.80;;;2.00;99.90;;;;;;5099574;28;20442;-80
2022/11/24 01:25:25;;;;;;;16.10;9.70;;;1.90;99.90;;;;;;5091638;28;20716;-78
2022/11/24 01:27:52;;;;;;;13.43;8.10;;;1.90;99.90;;;;;;5101548;28;20777;-77
2022/11/24 01:30:20;;;;;;;14.80;8.20;;;1.90;99.90;;;;;;5098294;28;20498;-77
2022/11/24 01:32:49;;;;;;;13.10;9.17;;;1.90;99.90;;;;;;5096759;28;20458;-77
2022/11/24 01:35:16;;;;;;;14.23;9.33;;;1.90;99.90;;;;;;5092817;28;20483;-77
2022/11/24 01:37:43;;;;;;;16.90;7.40;;;1.80;99.90;;;;;;5103852;28;20497;-77
2022/11/24 01:40:11;;;;;;;10.90;8.53;;;1.80;99.90;;;;;;5086833;28;20493;-78
2022/11/24 01:42:46;;;;;;;12.20;8.47;;;1.90;99.90;;;;;;5092188;28;20498;-77
2022/11/24 01:45:39;;;;;;;11.83;7.70;;;1.90;99.90;;;;;;5096482;28;21037;-77
2022/11/24 01:48:15;;;;;;;8.60;6.70;;;1.90;99.90;;;;;;5088810;28;20462;-77
2022/11/24 01:50:43;;;;;;;12.70;8.33;;;2.10;99.90;;;;;;5095173;28;20523;-78
2022/11/24 01:53:12;;;;;;;8.30;6.90;;;2.10;99.90;;;;;;5093301;28;20458;-77
2022/11/24 01:55:40;;;;;;;7.97;4.87;;;2.20;99.90;;;;;;5091283;28;20491;-77
2022/11/24 01:58:10;;;;;;;3.87;3.30;;;2.20;99.90;;;;;;5092076;28;20498;-80
2022/11/24 02:00:40;;;;;;;5.17;2.47;;;2.40;99.90;;;;;;5085138;28;20474;-80
2022/11/24 02:03:09;;;;;;;6.00;2.90;;;2.60;99.90;;;;;;5097407;28;20458;-80
2022/11/24 02:05:42;;;;;;;3.00;1.93;;;2.70;99.90;;;;;;5092146;28;21026;-78
2022/11/24 02:08:17;;;;;;;2.53;1.57;;;2.80;99.90;;;;;;5101691;28;20500;-77
2022/11/24 02:10:46;;;;;;;1.40;1.20;;;2.90;99.90;;;;;;5102645;28;20527;-77
2022/11/24 02:13:14;;;;;;;1.80;1.43;;;3.00;99.90;;;;;;5101967;28;20535;-78
2022/11/24 02:15:40;;;;;;;1.60;0.83;;;3.00;99.90;;;;;;5091395;28;20543;-77
2022/11/24 02:18:10;;;;;;;1.83;1.47;;;3.10;99.90;;;;;;5086812;28;20528;-77
2022/11/24 02:20:36;;;;;;;1.73;0.90;;;3.10;99.90;;;;;;5106509;28;20473;-78
2022/11/24 02:23:12;;;;;;;1.47;0.90;;;3.10;99.90;;;;;;5102620;27;20481;-77
2022/11/24 02:25:48;;;;;;;1.40;1.30;;;3.10;99.90;;;;;;5097387;28;20510;-77
2022/11/24 02:28:19;;;;;;;1.73;0.90;;;3.10;99.90;;;;;;5092331;28;20659;-77
2022/11/24 02:30:46;;;;;;;1.03;0.93;;;3.20;99.90;;;;;;5106889;28;20543;-77
2022/11/24 02:33:14;;;;;;;1.93;1.30;;;3.20;99.90;;;;;;5104389;28;20454;-77
2022/11/24 02:35:40;;;;;;;1.50;1.13;;;3.10;99.90;;;;;;5097820;28;20427;-77
2022/11/24 02:38:11;;;;;;;1.30;1.00;;;3.20;99.90;;;;;;5092015;28;20481;-77
2022/11/24 02:40:38;;;;;;;1.30;1.10;;;3.10;99.90;;;;;;5094252;28;20506;-78
2022/11/24 02:43:09;;;;;;;1.87;1.00;;;3.10;99.90;;;;;;5100999;28;20477;-77
2022/11/24 02:45:38;;;;;;;1.33;1.00;;;3.10;99.90;;;;;;5092934;28;20482;-78
2022/11/24 02:48:05;;;;;;;1.47;1.37;;;3.20;99.90;;;;;;5101879;28;20584;-78
2022/11/24 02:50:32;;;;;;;1.73;1.47;;;3.20;99.90;;;;;;5099334;28;20546;-77
2022/11/24 02:52:59;;;;;;;2.07;1.63;;;3.20;99.90;;;;;;5087528;28;20490;-77
2022/11/24 02:55:26;;;;;;;3.27;1.73;;;3.20;99.90;;;;;;5093140;28;21033;-77
2022/11/24 02:57:53;;;;;;;1.70;1.30;;;3.20;99.90;;;;;;5097036;28;20509;-77
2022/11/24 03:00:20;;;;;;;1.37;1.27;;;3.20;99.90;;;;;;5096527;28;20907;-78
2022/11/24 03:02:49;;;;;;;2.10;1.67;;;3.20;99.90;;;;;;5095681;28;20458;-77
2022/11/24 03:05:16;;;;;;;1.87;1.73;;;3.30;99.90;;;;;;5098253;28;20993;-77
2022/11/24 03:07:43;;;;;;;2.40;1.70;;;3.20;99.90;;;;;;5100073;28;20528;-77
2022/11/24 03:10:10;;;;;;;2.03;1.83;;;3.30;99.90;;;;;;5098122;28;20998;-77
2022/11/24 03:12:37;;;;;;;2.40;1.80;;;3.30;99.90;;;;;;5102789;28;20459;-78
2022/11/24 03:15:05;;;;;;;8.80;2.80;;;3.30;99.90;;;;;;5098214;28;20954;-77
2022/11/24 03:17:32;;;;;;;2.57;1.70;;;3.30;99.90;;;;;;5096260;28;21324;-77
2022/11/24 03:20:01;;;;;;;2.80;1.70;;;3.40;99.90;;;;;;5090775;28;20508;-77
2022/11/24 03:22:28;;;;;;;3.73;2.40;;;3.40;99.90;;;;;;5102019;28;20453;-77
2022/11/24 03:24:55;;;;;;;2.57;2.37;;;3.40;99.90;;;;;;5095737;28;20828;-77
2022/11/24 03:27:22;;;;;;;4.63;2.77;;;3.40;99.90;;;;;;5100336;28;20842;-78
2022/11/24 03:29:49;;;;;;;3.93;2.77;;;3.40;99.90;;;;;;5098168;28;20519;-77
2022/11/24 03:32:15;;;;;;;2.93;2.73;;;3.50;99.90;;;;;;5101906;28;20572;-77
2022/11/24 03:34:42;;;;;;;4.40;1.97;;;3.50;99.90;;;;;;5106133;28;20474;-77
2022/11/24 03:37:11;;;;;;;4.13;2.10;;;3.50;99.90;;;;;;5107621;28;20996;-77
2022/11/24 03:39:38;;;;;;;2.13;1.93;;;3.50;99.90;;;;;;5103221;28;20459;-78
2022/11/24 03:42:05;;;;;;;3.23;2.27;;;3.50;99.90;;;;;;5100479;28;20485;-78
2022/11/24 03:44:32;;;;;;;3.77;2.23;;;3.60;99.90;;;;;;5101415;28;20477;-77
2022/11/24 03:46:59;;;;;;;3.67;2.10;;;3.60;99.90;;;;;;5100318;28;20478;-78
2022/11/24 03:49:26;;;;;;;2.40;2.20;;;3.60;99.90;;;;;;5104445;28;20539;-78
2022/11/24 03:51:53;;;;;;;2.50;2.20;;;3.60;99.90;;;;;;5103816;28;20501;-78
2022/11/24 03:54:21;;;;;;;2.37;2.17;;;3.70;99.90;;;;;;5095920;28;20524;-78
2022/11/24 03:56:48;;;;;;;3.50;2.60;;;3.70;99.90;;;;;;5103731;28;20551;-78
2022/11/24 03:59:15;;;;;;;3.10;2.00;;;3.80;99.90;;;;;;5093362;28;20923;-77
2022/11/24 04:01:42;;;;;;;2.67;2.17;;;3.90;99.90;;;;;;5089035;28;20463;-78
2022/11/24 04:04:10;;;;;;;1.77;1.67;;;4.00;99.90;;;;;;5091118;28;20560;-77
2022/11/24 04:06:37;;;;;;;4.87;2.70;;;4.00;99.90;;;;;;5089546;28;20522;-78
2022/11/24 04:09:04;;;;;;;2.93;1.83;;;4.10;99.90;;;;;;5094612;28;20486;-78
2022/11/24 04:14:18;;;;;;;2.80;2.60;;;4.20;99.90;;;;;;5091971;28;20527;-77
2022/11/24 04:16:45;;;;;;;2.03;1.83;;;4.20;99.90;;;;;;5099035;28;20905;-77
2022/11/24 04:19:12;;;;;;;4.60;2.70;;;4.20;99.90;;;;;;5095897;27;20465;-77
2022/11/24 04:21:39;;;;;;;5.07;3.30;;;4.30;99.90;;;;;;5097233;28;20483;-78
2022/11/24 04:24:06;;;;;;;4.40;2.27;;;4.30;99.90;;;;;;5093881;28;20526;-78
2022/11/24 04:26:34;;;;;;;3.93;2.13;;;4.40;99.90;;;;;;5088292;28;20513;-78
2022/11/24 04:29:01;;;;;;;2.30;2.00;;;4.40;99.90;;;;;;5093635;28;20581;-77
2022/11/24 04:31:28;;;;;;;3.93;2.40;;;4.40;99.90;;;;;;5087076;28;20462;-78
2022/11/24 04:33:55;;;;;;;3.20;1.90;;;4.40;99.90;;;;;;5092360;28;20494;-78
2022/11/24 04:36:22;;;;;;;2.97;2.37;;;4.40;99.90;;;;;;5087952;28;20850;-78
2022/11/24 04:38:51;;;;;;;3.70;2.50;;;4.40;99.90;;;;;;5089817;28;20495;-78
2022/11/24 04:41:18;;;;;;;3.47;2.57;;;4.40;99.90;;;;;;5087575;28;20493;-78
2022/11/24 04:43:49;;;;;;;4.10;3.33;;;4.40;99.90;;;;;;5090418;28;20538;-78
2022/11/24 04:46:16;;;;;;;4.87;3.50;;;4.40;99.90;;;;;;5093174;28;20999;-78
2022/11/24 04:48:43;;;;;;;6.27;5.30;;;4.40;99.90;;;;;;5095653;28;20551;-78
2022/11/24 04:51:12;;;;;;;3.47;3.10;;;4.30;99.90;;;;;;5093809;28;20991;-78
2022/11/24 04:53:39;;;;;;;5.57;4.23;;;4.30;99.90;;;;;;5091289;27;21014;-78
2022/11/24 04:56:07;;;;;;;7.47;4.30;;;4.30;99.90;;;;;;5087214;28;20520;-78
2022/11/24 04:58:34;;;;;;;5.37;4.53;;;4.30;99.90;;;;;;5086232;28;20502;-78
2022/11/24 05:01:07;;;;;;;7.40;5.97;;;4.20;99.90;;;;;;5092943;28;20499;-78
2022/11/24 05:03:34;;;;;;;7.03;5.33;;;4.20;99.90;;;;;;5090127;28;20577;-78
2022/11/24 05:06:01;;;;;;;4.60;4.10;;;4.20;99.90;;;;;;5095822;28;20868;-78
2022/11/24 05:08:28;;;;;;;5.93;5.37;;;4.20;99.90;;;;;;5089922;28;20984;-78
2022/11/24 05:10:55;;;;;;;9.43;5.00;;;4.20;99.90;;;;;;5094144;28;20968;-78
2022/11/24 05:13:22;;;;;;;7.90;6.70;;;4.20;99.90;;;;;;5089133;28;20496;-78
2022/11/24 05:15:49;;;;;;;5.80;5.07;;;4.20;99.90;;;;;;5104564;28;20944;-78
2022/11/24 05:18:17;;;;;;;6.40;5.50;;;4.10;99.90;;;;;;5094803;28;20781;-78
2022/11/24 05:20:44;;;;;;;5.63;5.10;;;4.20;99.90;;;;;;5085813;28;20910;-78
2022/11/24 05:23:11;;;;;;;6.73;6.13;;;4.20;99.90;;;;;;5098763;28;20469;-78
2022/11/24 05:25:39;;;;;;;7.77;5.40;;;4.20;99.90;;;;;;5101798;28;20984;-78
2022/11/24 05:28:08;;;;;;;8.80;5.27;;;4.20;99.90;;;;;;5095396;28;20542;-78
2022/11/24 05:30:37;;;;;;;7.90;6.03;;;4.20;99.90;;;;;;5094372;28;20533;-77
2022/11/24 05:33:06;;;;;;;7.17;5.90;;;4.20;99.90;;;;;;5097819;28;20454;-77
2022/11/24 05:35:35;;;;;;;8.23;6.17;;;4.20;99.90;;;;;;5103163;28;20736;-78
2022/11/24 05:38:02;;;;;;;8.50;6.53;;;4.20;99.90;;;;;;5099854;28;20801;-78
2022/11/24 05:40:29;;;;;;;9.20;6.93;;;4.10;99.90;;;;;;5086281;28;20554;-78
2022/11/24 05:42:57;;;;;;;7.10;6.40;;;4.10;99.90;;;;;;5097848;28;20540;-78
2022/11/24 05:45:24;;;;;;;6.80;6.10;;;4.10;99.90;;;;;;5096548;28;20564;-78
2022/11/24 05:47:52;;;;;;;7.13;5.77;;;4.10;99.90;;;;;;5092894;28;20491;-79
2022/11/24 05:50:21;;;;;;;8.40;5.80;;;4.10;99.90;;;;;;5088716;28;20520;-78
2022/11/24 05:52:50;;;;;;;9.20;8.00;;;4.10;99.90;;;;;;5088820;28;20547;-80
2022/11/24 05:55:19;;;;;;;5.23;4.73;;;4.20;99.90;;;;;;5086728;28;20490;-80
2022/11/24 05:57:46;;;;;;;9.53;6.80;;;4.20;99.90;;;;;;5091409;28;20550;-80
2022/11/24 06:00:16;;;;;;;8.60;7.73;;;4.20;99.90;;;;;;5091432;28;20485;-79
2022/11/24 06:02:43;;;;;;;8.90;5.67;;;4.10;99.90;;;;;;5091072;28;20493;-79
2022/11/24 06:05:10;;;;;;;9.17;6.20;;;4.20;99.90;;;;;;5099365;28;20485;-79
2022/11/24 06:07:37;;;;;;;7.23;6.20;;;4.20;99.90;;;;;;5093531;28;20949;-79
2022/11/24 06:10:06;;;;;;;15.07;7.57;;;4.20;99.90;;;;;;5093192;28;20910;-79
2022/11/24 06:12:33;;;;;;;10.97;7.00;;;4.10;99.90;;;;;;5095104;28;20489;-79
2022/11/24 06:15:00;;;;;;;7.43;5.20;;;4.00;99.90;;;;;;5094299;28;20487;-79
2022/11/24 06:17:27;;;;;;;12.40;4.57;;;4.00;99.90;;;;;;5089286;28;20785;-79
2022/11/24 06:19:54;;;;;;;6.20;4.07;;;4.20;99.90;;;;;;5098102;28;20493;-79
2022/11/24 06:22:21;;;;;;;7.73;4.17;;;4.30;99.90;;;;;;5083633;28;20567;-79
2022/11/24 06:24:49;;;;;;;6.17;3.13;;;4.40;99.90;;;;;;5090303;28;20792;-79
2022/11/24 06:27:18;;;;;;;3.90;2.17;;;4.40;99.90;;;;;;5085063;28;20970;-80
2022/11/24 06:29:46;;;;;;;6.43;2.00;;;4.50;99.90;;;;;;5087204;28;20467;-81
2022/11/24 06:32:13;;;;;;;4.50;1.27;;;4.60;99.90;;;;;;5088725;28;20474;-81
2022/11/24 06:34:40;;;;;;;1.20;0.97;;;4.70;99.90;;;;;;5081838;28;21122;-81
2022/11/24 06:37:07;;;;;;;4.73;1.80;;;4.80;99.90;;;;;;5086196;28;20491;-81
2022/11/24 06:39:34;;;;;;;2.30;0.87;;;5.00;99.90;;;;;;5071787;28;21015;-81
2022/11/24 06:42:01;;;;;;;1.43;0.80;;;5.00;99.90;;;;;;5079099;28;20496;-81
2022/11/24 06:44:30;;;;;;;4.90;1.67;;;5.10;99.90;;;;;;5078121;28;20495;-81
2022/11/24 06:46:57;;;;;;;1.37;0.70;;;5.20;99.90;;;;;;5082256;28;20515;-82
2022/11/24 06:49:24;;;;;;;1.20;0.70;;;5.20;99.90;;;;;;5079593;28;20513;-82
2022/11/24 06:51:50;;;;;;;1.17;0.80;;;5.20;99.90;;;;;;5083525;28;20567;-80
2022/11/24 06:54:19;;;;;;;0.90;0.63;;;5.20;99.90;;;;;;5080794;28;20560;-79
2022/11/24 06:56:47;;;;;;;3.80;1.40;;;5.20;99.90;;;;;;5082584;28;20454;-82
2022/11/24 06:59:17;;;;;;;5.47;0.97;;;5.30;99.90;;;;;;5081165;28;20533;-81
2022/11/24 07:01:46;;;;;;;2.63;1.00;;;5.30;99.90;;;;;;5081336;28;20586;-82
2022/11/24 07:04:14;;;;;;;2.03;1.17;;;5.40;99.90;;;;;;5085371;28;20853;-82
2022/11/24 07:06:41;;;;;;;1.40;1.00;;;5.40;99.90;;;;;;5085184;27;21080;-81
2022/11/24 07:09:09;;;;;;;1.77;1.10;;;5.40;99.90;;;;;;5085011;27;20490;-81
2022/11/24 07:11:36;;;;;;;5.90;2.30;;;5.40;99.90;;;;;;5087732;28;20486;-81
2022/11/24 07:14:03;;;;;;;5.67;1.30;;;5.40;99.90;;;;;;5088745;28;20927;-81
2022/11/24 07:16:31;;;;;;;2.60;0.90;;;5.40;99.90;;;;;;5090667;28;20470;-81
2022/11/24 07:18:59;;;;;;;4.70;1.20;;;5.40;99.90;;;;;;5105492;28;20466;-82
2022/11/24 07:21:27;;;;;;;2.93;0.73;;;5.40;99.90;;;;;;5086844;28;21001;-80
2022/11/24 07:23:56;;;;;;;1.23;0.90;;;5.50;99.90;;;;;;5086448;28;20503;-80
2022/11/24 07:26:24;;;;;;;3.00;1.00;;;5.50;99.90;;;;;;5087332;28;20514;-80
2022/11/24 07:28:51;;;;;;;1.00;0.70;;;5.40;99.90;;;;;;5083221;28;20549;-80
2022/11/24 07:31:19;;;;;;;3.57;1.00;;;5.40;99.90;;;;;;5086099;28;20705;-80
2022/11/24 07:33:48;;;;;;;1.60;0.90;;;5.50;99.90;;;;;;5084762;28;20494;-80
2022/11/24 07:36:17;;;;;;;1.20;0.70;;;5.60;99.90;;;;;;5087391;28;21664;-80
2022/11/24 07:38:44;;;;;;;1.63;0.80;;;5.80;99.90;;;;;;5084688;28;20937;-80
2022/11/24 07:41:12;;;;;;;2.60;0.60;;;6.00;99.90;;;;;;5088898;28;20634;-80
2022/11/24 07:43:40;;;;;;;4.87;0.90;;;6.10;99.90;;;;;;5089008;28;20812;-80
2022/11/24 07:46:09;;;;;;;0.60;0.50;;;6.20;99.90;;;;;;5092270;28;20523;-79
2022/11/24 07:48:36;;;;;;;1.17;0.60;;;6.20;99.90;;;;;;5086655;28;20504;-79
2022/11/24 07:51:05;;;;;;;3.03;0.50;;;6.20;99.90;;;;;;5089158;28;20544;-79
2022/11/24 07:53:34;;;;;;;3.10;0.70;;;6.20;99.90;;;;;;5084896;28;20964;-79
2022/11/24 07:56:03;;;;;;;4.27;0.83;;;6.10;99.90;;;;;;5083984;28;20483;-79
2022/11/24 07:58:32;;;;;;;1.93;0.87;;;6.10;99.90;;;;;;5083122;28;20522;-80
2022/11/24 08:00:59;;;;;;;1.27;0.60;;;6.10;99.90;;;;;;5087221;27;20482;-79
2022/11/24 08:03:26;;;;;;;1.00;0.47;;;6.00;99.90;;;;;;5087403;28;20500;-79
2022/11/24 08:05:56;;;;;;;4.73;1.03;;;6.00;99.90;;;;;;5090830;28;20521;-79
2022/11/24 08:08:24;;;;;;;2.63;0.57;;;6.00;99.90;;;;;;5082058;28;20527;-79
2022/11/24 08:10:52;;;;;;;1.10;0.70;;;6.00;99.90;;;;;;5086544;28;20498;-80
2022/11/24 08:13:20;;;;;;;6.80;0.70;;;6.00;99.90;;;;;;5085916;28;20489;-79
2022/11/24 08:15:46;;;;;;;1.77;0.77;;;6.10;99.90;;;;;;5087250;28;20813;-79
2022/11/24 08:18:13;;;;;;;1.07;0.97;;;6.10;99.90;;;;;;5088212;28;20902;-79
2022/11/24 08:20:40;;;;;;;1.03;0.57;;;6.10;99.90;;;;;;5085823;28;20500;-80
2022/11/24 08:23:07;;;;;;;1.07;0.60;;;6.20;99.90;;;;;;5089516;28;20537;-80
2022/11/24 08:25:35;;;;;;;0.80;0.60;;;6.30;99.90;;;;;;5088748;27;20805;-80
2022/11/24 08:28:04;;;;;;;1.13;0.57;;;6.30;99.90;;;;;;5085215;28;20833;-80
2022/11/24 08:30:31;;;;;;;1.67;0.90;;;6.30;99.90;;;;;;5090013;28;20502;-81
2022/11/24 08:32:59;;;;;;;3.07;0.80;;;6.40;99.90;;;;;;5088839;28;20468;-80
2022/11/24 08:35:26;;;;;;;2.87;0.87;;;6.40;99.90;;;;;;5091879;28;20474;-80
2022/11/24 08:37:53;;;;;;;5.50;0.70;;;6.40;99.90;;;;;;5088578;28;20502;-80
2022/11/24 08:40:20;;;;;;;2.50;0.90;;;6.40;99.90;;;;;;5087410;28;20587;-80
2022/11/24 08:42:58;;;;;;;1.73;0.50;;;6.40;99.90;;;;;;5086248;28;20491;-82
2022/11/24 08:45:28;;;;;;;4.10;2.63;;;6.50;99.90;;;;;;5090526;28;20455;-82
2022/11/24 08:47:57;;;;;;;0.83;0.50;;;6.60;99.90;;;;;;5088461;28;20878;-83
2022/11/24 08:50:27;;;;;;;0.90;0.40;;;6.60;99.90;;;;;;5089264;28;20439;-82
2022/11/24 08:52:54;;;;;;;4.50;1.07;;;6.70;99.90;;;;;;5086170;28;20993;-80
2022/11/24 08:55:21;;;;;;;1.80;1.30;;;6.70;99.90;;;;;;5085274;28;20466;-80
2022/11/24 08:57:48;;;;;;;1.33;1.10;;;6.80;99.90;;;;;;5092693;28;20461;-80
2022/11/24 09:00:21;;;;;;;1.17;0.60;;;6.90;99.90;;;;;;5092827;28;20489;-80
2022/11/24 09:02:55;;;;;;;1.07;1.03;;;6.90;99.90;;;;;;5089856;28;20491;-80
2022/11/24 09:05:22;;;;;;;0.93;0.80;;;6.90;99.90;;;;;;5091401;28;20561;-80
2022/11/24 09:07:49;;;;;;;0.60;0.40;;;6.90;99.90;;;;;;5084926;28;20577;-80
2022/11/24 09:10:16;;;;;;;4.33;0.50;;;6.90;99.90;;;;;;5092472;28;20655;-81
2022/11/24 09:12:45;;;;;;;0.70;0.40;;;7.00;99.90;;;;;;5090232;28;20456;-81
2022/11/24 09:15:12;;;;;;;1.83;0.80;;;7.10;99.90;;;;;;5090936;28;20494;-80
2022/11/24 09:17:39;;;;;;;0.80;0.70;;;7.10;99.90;;;;;;5096341;28;20459;-80
2022/11/24 09:20:08;;;;;;;4.33;2.97;;;7.20;99.90;;;;;;5103545;28;20457;-80
2022/11/24 09:22:36;;;;;;;7.80;1.30;;;7.20;99.90;;;;;;5102858;28;20974;-80
2022/11/24 09:25:04;;;;;;;2.70;0.93;;;7.20;99.90;;;;;;5092555;28;21197;-80
2022/11/24 09:27:33;;;;;;;2.30;0.77;;;7.30;99.90;;;;;;5083226;28;20486;-80
2022/11/24 09:30:00;;;;;;;1.87;0.67;;;7.50;99.90;;;;;;5086462;28;20885;-80
2022/11/24 09:32:29;;;;;;;1.73;1.03;;;7.60;99.90;;;;;;5085096;28;20972;-80
2022/11/24 09:34:56;;;;;;;5.23;1.00;;;7.70;99.90;;;;;;5085938;28;20768;-80
2022/11/24 09:37:24;;;;;;;1.37;1.27;;;7.70;99.90;;;;;;5093041;28;20563;-80
2022/11/24 09:39:51;;;;;;;5.53;1.00;;;7.70;99.90;;;;;;5084081;28;20463;-80
2022/11/24 09:42:30;;;;;;;1.00;0.70;;;7.80;99.90;;;;;;5092866;28;20499;-80
2022/11/24 09:45:19;;;;;;;1.73;0.80;;;7.80;99.90;;;;;;5087636;28;20557;-80
2022/11/24 09:47:58;;;;;;;3.03;1.20;;;7.90;99.90;;;;;;5083443;28;20520;-81
2022/11/24 09:50:27;;;;;;;3.87;0.80;;;7.90;99.90;;;;;;5085552;28;20701;-80
2022/11/24 09:53:02;;;;;;;5.33;1.20;;;8.00;99.90;;;;;;5083779;28;20494;-79
2022/11/24 09:55:36;;;;;;;1.57;1.47;;;8.00;99.90;;;;;;5093052;28;20458;-80
2022/11/24 09:58:12;;;;;;;3.30;1.80;;;8.00;99.90;;;;;;5102371;28;20506;-80
2022/11/24 10:00:39;;;;;;;3.80;1.30;;;8.10;99.90;;;;;;5087459;28;20458;-79
2022/11/24 10:03:11;;;;;;;4.50;2.67;;;8.10;99.90;;;;;;5101746;28;20475;-79
2022/11/24 10:05:37;;;;;;;4.40;1.93;;;8.20;99.90;;;;;;5092384;28;20494;-82
2022/11/24 10:08:21;;;;;;;8.93;2.27;;;8.20;99.90;;;;;;5086088;28;21125;-81
2022/11/24 10:10:55;;;;;;;2.83;1.60;;;8.10;99.90;;;;;;5086922;28;20457;-81
2022/11/24 10:13:40;;;;;;;2.57;0.70;;;8.10;99.90;;;;;;5089615;28;20462;-81
2022/11/24 10:16:13;;;;;;;3.27;1.53;;;8.10;99.90;;;;;;5091827;28;20543;-82
2022/11/24 10:18:55;;;;;;;11.03;8.37;;;8.20;99.90;;;;;;5089005;28;20662;-81
2022/11/24 10:21:40;;;;;;;12.30;7.73;;;8.20;99.90;;;;;;5091914;28;20955;-81
2022/11/24 10:24:33;;;;;;;6.43;3.13;;;8.20;99.90;;;;;;5090262;28;20750;-81
2022/11/24 10:27:03;;;;;;;11.80;6.60;;;8.20;99.90;;;;;;5093168;28;20757;-81
2022/11/24 10:29:34;;;;;;;6.97;4.37;;;8.30;99.90;;;;;;5090371;28;20929;-82
2022/11/24 10:32:06;;;;;;;8.20;5.03;;;8.40;99.90;;;;;;5086601;28;20466;-79
2022/11/24 10:34:35;;;;;;;4.97;2.40;;;8.50;99.90;;;;;;5088735;28;20861;-80
2022/11/24 10:37:08;;;;;;;2.93;1.00;;;8.50;99.90;;;;;;5089140;28;20458;-79
2022/11/24 10:39:42;;;;;;;6.53;4.43;;;8.30;99.90;;;;;;5089334;28;20489;-82
2022/11/24 10:42:16;;;;;;;21.63;11.63;;;8.20;99.90;;;;;;5097812;28;20497;-82
2022/11/24 10:44:43;;;;;;;11.33;1.90;;;8.20;99.90;;;;;;5095511;28;20468;-81
2022/11/24 10:47:19;;;;;;;2.47;1.57;;;8.20;99.90;;;;;;5098622;28;20495;-81
2022/11/24 10:49:54;;;;;;;3.60;2.43;;;8.10;99.90;;;;;;5088807;28;20539;-82
2022/11/24 10:52:23;;;;;;;5.90;1.33;;;8.00;99.90;;;;;;5093039;28;20849;-81
2022/11/24 10:54:58;;;;;;;4.37;2.53;;;8.00;99.90;;;;;;5093916;28;20865;-82
2022/11/24 10:57:31;;;;;;;4.93;1.83;;;8.00;99.90;;;;;;5094374;28;20544;-82
2022/11/24 10:59:58;;;;;;;2.07;0.60;;;8.00;99.90;;;;;;5107567;28;20510;-82
2022/11/24 11:02:31;;;;;;;3.63;1.80;;;8.00;99.90;;;;;;5099572;28;20493;-81
2022/11/24 11:04:59;;;;;;;5.40;1.20;;;8.10;99.90;;;;;;5104100;28;20550;-80
2022/11/24 11:07:27;;;;;;;1.97;1.27;;;8.20;99.90;;;;;;5089592;28;20482;-80
2022/11/24 11:10:19;;;;;;;9.07;1.10;;;8.30;99.90;;;;;;5097039;28;20457;-80
2022/11/24 11:12:46;;;;;;;3.90;0.60;;;8.50;99.90;;;;;;5099202;28;20462;-80
2022/11/24 11:15:24;;;;;;;2.20;0.80;;;8.60;99.90;;;;;;5103514;28;20937;-79
2022/11/24 11:17:56;;;;;;;1.93;0.60;;;8.60;99.90;;;;;;5100356;28;20548;-80
2022/11/24 11:20:28;;;;;;;1.20;0.70;;;8.70;99.90;;;;;;5103852;28;20690;-80
2022/11/24 11:22:57;;;;;;;2.03;0.67;;;8.80;99.90;;;;;;5093786;28;20495;-80
2022/11/24 11:25:31;;;;;;;7.17;1.00;;;8.80;99.90;;;;;;5099093;28;20442;-80
2022/11/24 11:28:19;;;;;;;2.63;0.97;;;8.80;99.90;;;;;;5107659;28;20513;-80
2022/11/24 11:30:58;;;;;;;5.10;2.50;;;8.80;99.90;;;;;;5090784;28;20442;-80
2022/11/24 11:33:28;;;;;;;2.30;1.53;;;8.80;99.90;;;;;;5088711;28;20528;-80
2022/11/24 11:35:56;;;;;;;3.53;1.37;;;8.80;99.90;;;;;;5096637;28;20536;-80
2022/11/24 11:38:25;;;;;;;1.73;0.60;;;8.90;99.90;;;;;;5086601;28;20750;-80
2022/11/24 11:40:53;;;;;;;6.00;1.23;;;8.80;99.90;;;;;;5087521;28;20558;-80
2022/11/24 11:43:27;;;;;;;2.80;0.60;;;8.80;99.90;;;;;;5091471;28;20496;-80
2022/11/24 11:46:02;;;;;;;1.50;0.73;;;8.80;99.90;;;;;;5097659;28;20442;-80
2022/11/24 11:48:32;;;;;;;7.00;1.37;;;8.90;99.90;;;;;;5091000;28;20567;-79
2022/11/24 11:51:05;;;;;;;3.57;0.70;;;9.00;99.90;;;;;;5090863;28;20661;-79
2022/11/24 11:53:43;;;;;;;3.23;0.70;;;9.10;99.90;;;;;;5087978;27;20462;-79
2022/11/24 11:56:23;;;;;;;1.80;0.53;;;9.20;99.90;;;;;;5095531;28;20599;-79
2022/11/24 11:59:26;;;;;;;3.53;0.80;;;9.40;99.90;;;;;;5085829;28;20447;-79
2022/11/24 12:02:17;;;;;;;7.87;0.80;;;9.80;99.90;;;;;;5078794;28;20848;-79
2022/11/24 12:04:51;;;;;;;4.20;1.20;;;9.80;99.90;;;;;;5094331;28;20466;-80
2022/11/24 12:07:51;;;;;;;2.17;0.70;;;9.70;99.90;;;;;;5099684;28;20482;-79
2022/11/24 12:10:29;;;;;;;1.60;0.50;;;9.70;99.90;;;;;;5101098;28;20476;-79
2022/11/24 12:13:10;;;;;;;2.77;0.70;;;9.50;99.90;;;;;;5092174;28;20462;-79
2022/11/24 12:15:41;;;;;;;0.80;0.50;;;9.30;99.90;;;;;;5098564;28;20493;-79
2022/11/24 12:18:17;;;;;;;2.87;0.70;;;9.20;99.90;;;;;;5101357;28;20469;-79
2022/11/24 12:20:57;;;;;;;5.70;0.87;;;9.20;99.90;;;;;;5093003;28;20462;-78
2022/11/24 12:23:31;;;;;;;3.00;0.70;;;9.30;99.90;;;;;;5091723;28;20466;-79
2022/11/24 12:26:05;;;;;;;11.53;1.03;;;9.20;99.90;;;;;;5104924;28;20493;-79
2022/11/24 12:28:43;;;;;;;3.97;1.53;;;9.20;99.90;;;;;;5098213;28;20494;-79
2022/11/24 12:31:23;;;;;;;4.40;0.83;;;9.10;99.90;;;;;;5094568;28;20450;-79
2022/11/24 12:34:13;;;;;;;4.27;0.93;;;9.00;99.90;;;;;;5095888;27;20490;-79
2022/11/24 12:37:02;;;;;;;6.33;0.80;;;8.80;99.90;;;;;;5086351;28;20546;-81
2022/11/24 12:39:40;;;;;;;3.73;0.80;;;8.60;99.90;;;;;;5093674;28;20523;-81
2022/11/24 12:42:12;;;;;;;1.77;0.40;;;8.40;99.90;;;;;;5098057;28;20491;-81
2022/11/24 12:45:06;;;;;;;4.10;1.70;;;8.20;99.90;;;;;;5105811;28;20502;-81
2022/11/24 12:47:39;;;;;;;3.70;0.50;;;8.10;99.90;;;;;;5095332;27;20606;-80
2022/11/24 12:50:10;;;;;;;0.70;0.50;;;8.10;99.90;;;;;;5094117;28;20846;-81
2022/11/24 12:52:40;;;;;;;5.70;0.70;;;8.10;99.90;;;;;;5091814;28;20881;-81
2022/11/24 12:55:15;;;;;;;1.53;0.40;;;8.20;99.90;;;;;;5090133;28;20468;-80
2022/11/24 12:57:48;;;;;;;0.77;0.50;;;8.10;99.90;;;;;;5096379;28;20480;-81
2022/11/24 13:00:21;;;;;;;4.07;0.43;;;8.10;99.90;;;;;;5086002;28;20453;-80
2022/11/24 13:03:05;;;;;;;8.10;0.60;;;8.00;99.90;;;;;;5087304;28;20497;-80
2022/11/24 13:05:39;;;;;;;1.50;0.40;;;8.00;99.90;;;;;;5093923;28;20552;-81
2022/11/24 13:08:06;;;;;;;5.23;0.70;;;8.00;99.90;;;;;;5090250;28;20517;-81
2022/11/24 13:10:36;;;;;;;1.07;0.60;;;8.10;99.90;;;;;;5098291;28;20891;-81
2022/11/24 13:13:05;;;;;;;1.03;0.50;;;8.10;99.90;;;;;;5105829;28;20457;-81